Terminal Aerodrome Forecast
Issued by NWS

Home | Current Version | Previous Version | Text Only | Print | Product List | Glossary On
Versions: 1 2 3 4 5 6 7 8 9 10 11 12 13 14 15 16 17 18 19 20
000
FTUS42 KGSP 271733
TAFGMU
TAF
KGMU 271733Z 2718/2818 31013G23KT P6SM SCT060
     FM280000 32009KT P6SM FEW250
     FM280600 35005KT P6SM FEW250=

USA.gov is the U.S. government's official web portal to all federal, state and local government web resources and services.